Time,TemperatureF,DewpointF,PressureIn,WindDirection,WindDirectionDegrees,WindSpeedMPH,WindSpeedGustMPH,Humidity,HourlyPrecipIn,Conditions,Clouds,dailyrainin,SoftwareType,DateUTC
2013-01-31 00:00:00,37.4,36.1,29.08,North,0,0.0,0.0,95,0.00,,,0.13,WUHU216HW,2013-01-31 05:00:00,
2013-01-31 00:01:00,37.4,36.1,29.08,North,0,0.0,0.0,95,0.00,,,0.00,WUHU216HW,2013-01-31 05:01:00,
2013-01-31 00:05:00,37.6,36.3,29.07,North,0,0.0,0.0,95,0.00,,,0.00,WUHU216HW,2013-01-31 05:05:00,
2013-01-31 00:10:00,38.2,36.8,29.07,North,0,0.0,0.0,95,0.00,,,0.00,WUHU216HW,2013-01-31 05:10:00,
2013-01-31 00:15:00,39.6,38.3,29.07,North,0,0.0,0.0,95,0.00,,,0.00,WUHU216HW,2013-01-31 05:15:00,
2013-01-31 00:20:00,40.7,39.6,29.07,North,0,0.0,0.0,96,0.00,,,0.00,WUHU216HW,2013-01-31 05:20:00,
2013-01-31 00:25:00,41.9,40.9,29.06,North,0,0.0,0.0,96,0.01,,,0.01,WUHU216HW,2013-01-31 05:25:00,
2013-01-31 00:31:00,43.7,42.7,29.05,North,0,0.0,0.0,96,0.01,,,0.01,WUHU216HW,2013-01-31 05:31:00,
2013-01-31 00:36:00,45.0,43.9,29.04,North,0,0.0,0.0,96,0.01,,,0.01,WUHU216HW,2013-01-31 05:36:00,
2013-01-31 00:41:00,47.3,46.5,29.03,North,0,0.0,0.0,97,0.01,,,0.01,WUHU216HW,2013-01-31 05:41:00,
2013-01-31 00:46:00,48.4,47.4,29.02,North,0,0.0,0.0,96,0.01,,,0.01,WUHU216HW,2013-01-31 05:46:00,
2013-01-31 00:51:00,49.3,48.3,29.02,North,0,0.0,0.0,96,0.01,,,0.01,WUHU216HW,2013-01-31 05:51:00,
2013-01-31 00:56:00,49.9,48.7,29.02,North,0,0.0,0.0,96,0.01,,,0.01,WUHU216HW,2013-01-31 05:56:00,
2013-01-31 01:01:00,50.0,48.9,29.01,North,0,0.0,0.0,96,0.01,,,0.01,WUHU216HW,2013-01-31 06:01:00,
2013-01-31 01:06:00,50.0,48.9,29.01,North,0,0.0,0.0,96,0.01,,,0.01,WUHU216HW,2013-01-31 06:06:00,
2013-01-31 01:11:00,50.4,49.2,29.00,North,0,0.0,0.0,96,0.01,,,0.01,WUHU216HW,2013-01-31 06:11:00,
2013-01-31 01:16:00,50.6,49.4,28.99,North,0,0.0,0.0,96,0.01,,,0.01,WUHU216HW,2013-01-31 06:16:00,
2013-01-31 01:21:00,50.9,49.8,28.99,North,0,0.0,0.0,96,0.02,,,0.02,WUHU216HW,2013-01-31 06:21:00,
2013-01-31 01:26:00,51.1,50.0,28.99,North,0,0.0,0.0,96,0.01,,,0.02,WUHU216HW,2013-01-31 06:26:00,
2013-01-31 01:31:00,51.5,50.3,28.98,North,0,0.0,0.0,96,0.01,,,0.02,WUHU216HW,2013-01-31 06:31:00,
2013-01-31 01:36:00,51.5,50.3,28.97,North,0,0.0,0.0,96,0.01,,,0.02,WUHU216HW,2013-01-31 06:36:00,
2013-01-31 01:42:00,51.7,50.5,28.97,North,0,0.0,0.0,96,0.01,,,0.02,WUHU216HW,2013-01-31 06:42:00,
2013-01-31 01:47:00,51.5,50.3,28.95,North,0,0.0,0.0,96,0.01,,,0.02,WUHU216HW,2013-01-31 06:47:00,
2013-01-31 01:52:00,51.7,50.5,28.95,North,0,0.0,0.0,96,0.01,,,0.02,WUHU216HW,2013-01-31 06:52:00,
2013-01-31 01:57:00,51.8,50.7,28.95,North,0,0.0,0.0,96,0.01,,,0.02,WUHU216HW,2013-01-31 06:57:00,
2013-01-31 02:02:00,51.8,50.7,28.94,North,0,0.0,0.0,96,0.01,,,0.02,WUHU216HW,2013-01-31 07:02:00,
2013-01-31 02:07:00,52.4,51.2,28.94,North,0,0.0,0.0,96,0.01,,,0.02,WUHU216HW,2013-01-31 07:07:00,
2013-01-31 02:12:00,52.6,51.4,28.93,North,0,0.0,0.0,96,0.02,,,0.03,WUHU216HW,2013-01-31 07:12:00,
2013-01-31 02:17:00,52.7,51.6,28.92,North,0,0.0,0.0,96,0.02,,,0.03,WUHU216HW,2013-01-31 07:17:00,
2013-01-31 02:22:00,52.9,51.8,28.92,North,0,0.0,0.0,96,0.01,,,0.03,WUHU216HW,2013-01-31 07:22:00,
2013-01-31 02:27:00,52.6,51.4,28.91,North,0,0.0,0.0,96,0.02,,,0.04,WUHU216HW,2013-01-31 07:27:00,
2013-01-31 02:32:00,52.7,51.6,28.91,North,0,0.0,0.0,96,0.02,,,0.04,WUHU216HW,2013-01-31 07:32:00,
2013-01-31 02:37:00,52.9,51.8,28.90,North,0,0.0,0.0,96,0.03,,,0.05,WUHU216HW,2013-01-31 07:37:00,
2013-01-31 02:42:00,53.1,51.9,28.89,North,0,0.0,0.0,96,0.04,,,0.06,WUHU216HW,2013-01-31 07:42:00,
2013-01-31 02:47:00,53.6,52.5,28.89,North,0,0.0,0.0,96,0.04,,,0.06,WUHU216HW,2013-01-31 07:47:00,
2013-01-31 02:52:00,53.6,52.7,28.88,North,0,0.0,0.0,97,0.06,,,0.08,WUHU216HW,2013-01-31 07:52:00,
2013-01-31 02:57:00,53.6,52.5,28.87,North,0,0.0,0.0,96,0.06,,,0.08,WUHU216HW,2013-01-31 07:57:00,
2013-01-31 03:03:00,53.6,52.7,28.86,North,0,0.0,0.0,97,0.07,,,0.09,WUHU216HW,2013-01-31 08:03:00,
2013-01-31 03:08:00,53.6,52.7,28.85,North,0,0.0,0.0,97,0.08,,,0.10,WUHU216HW,2013-01-31 08:08:00,
2013-01-31 03:13:00,53.8,52.9,28.84,North,0,0.0,0.0,97,0.08,,,0.11,WUHU216HW,2013-01-31 08:13:00,
2013-01-31 03:18:00,54.0,53.1,28.84,North,0,0.0,0.0,97,0.09,,,0.12,WUHU216HW,2013-01-31 08:18:00,
2013-01-31 03:23:00,54.0,53.1,28.83,North,0,0.0,0.0,97,0.09,,,0.12,WUHU216HW,2013-01-31 08:23:00,
2013-01-31 03:28:00,54.0,53.1,28.82,North,0,0.0,0.0,97,0.08,,,0.12,WUHU216HW,2013-01-31 08:28:00,
2013-01-31 03:33:00,54.4,53.5,28.82,North,0,0.0,0.0,97,0.08,,,0.12,WUHU216HW,2013-01-31 08:33:00,
2013-01-31 03:38:00,54.4,53.5,28.82,North,0,0.0,0.0,97,0.07,,,0.12,WUHU216HW,2013-01-31 08:38:00,
2013-01-31 03:43:00,54.4,53.5,28.81,North,0,0.0,0.0,97,0.08,,,0.14,WUHU216HW,2013-01-31 08:43:00,
2013-01-31 03:48:00,54.4,53.5,28.81,North,0,0.0,0.0,97,0.08,,,0.14,WUHU216HW,2013-01-31 08:48:00,
2013-01-31 03:53:00,54.5,53.6,28.80,North,0,0.0,0.0,97,0.06,,,0.14,WUHU216HW,2013-01-31 08:53:00,
2013-01-31 03:58:00,54.5,53.6,28.79,North,0,0.0,0.0,97,0.05,,,0.14,WUHU216HW,2013-01-31 08:58:00,
2013-01-31 04:03:00,54.5,53.6,28.78,North,0,0.0,0.0,97,0.05,,,0.14,WUHU216HW,2013-01-31 09:03:00,
2013-01-31 04:08:00,54.5,53.6,28.77,North,0,0.0,0.0,97,0.04,,,0.14,WUHU216HW,2013-01-31 09:08:00,
2013-01-31 04:13:00,54.9,54.0,28.76,North,0,0.0,0.0,97,0.03,,,0.14,WUHU216HW,2013-01-31 09:13:00,
2013-01-31 04:19:00,55.1,54.2,28.75,North,0,0.0,0.0,97,0.02,,,0.14,WUHU216HW,2013-01-31 09:19:00,
2013-01-31 04:24:00,55.1,54.2,28.74,North,0,0.0,0.0,97,0.02,,,0.14,WUHU216HW,2013-01-31 09:24:00,
2013-01-31 04:29:00,55.1,54.2,28.74,North,0,0.0,0.0,97,0.02,,,0.14,WUHU216HW,2013-01-31 09:29:00,
2013-01-31 04:34:00,55.3,54.4,28.73,North,0,0.0,0.0,97,0.02,,,0.14,WUHU216HW,2013-01-31 09:34:00,
2013-01-31 04:39:00,55.4,54.5,28.72,North,0,0.0,0.0,97,0.02,,,0.14,WUHU216HW,2013-01-31 09:39:00,
2013-01-31 04:44:00,55.4,54.5,28.72,North,0,0.0,0.0,97,0.00,,,0.14,WUHU216HW,2013-01-31 09:44:00,
2013-01-31 04:50:00,55.6,54.7,28.71,North,0,0.0,0.0,97,0.00,,,0.14,WUHU216HW,2013-01-31 09:50:00,
2013-01-31 04:55:00,55.8,54.9,28.71,North,0,0.0,0.0,97,0.00,,,0.14,WUHU216HW,2013-01-31 09:55:00,
2013-01-31 05:00:00,55.8,54.9,28.70,North,0,0.0,0.0,97,0.02,,,0.16,WUHU216HW,2013-01-31 10:00:00,
2013-01-31 05:05:00,55.8,54.9,28.69,North,0,0.0,0.0,97,0.02,,,0.16,WUHU216HW,2013-01-31 10:05:00,
2013-01-31 05:10:00,56.2,55.3,28.68,North,0,0.0,0.0,97,0.02,,,0.16,WUHU216HW,2013-01-31 10:10:00,
2013-01-31 05:15:00,56.0,55.1,28.68,North,0,0.0,0.0,97,0.02,,,0.16,WUHU216HW,2013-01-31 10:15:00,
2013-01-31 05:20:00,56.2,55.3,28.68,North,0,0.0,0.0,97,0.04,,,0.18,WUHU216HW,2013-01-31 10:20:00,
2013-01-31 05:25:00,56.2,55.3,28.66,North,0,0.0,0.0,97,0.05,,,0.19,WUHU216HW,2013-01-31 10:25:00,
2013-01-31 05:30:00,56.3,55.4,28.65,North,0,0.0,0.0,97,0.07,,,0.21,WUHU216HW,2013-01-31 10:30:00,
2013-01-31 05:35:00,56.3,55.4,28.64,North,0,0.0,0.0,97,0.07,,,0.21,WUHU216HW,2013-01-31 10:35:00,
2013-01-31 05:40:00,56.2,55.3,28.63,North,0,0.0,0.0,97,0.09,,,0.23,WUHU216HW,2013-01-31 10:40:00,
2013-01-31 05:46:00,56.3,55.4,28.63,North,0,0.0,0.0,97,0.11,,,0.25,WUHU216HW,2013-01-31 10:46:00,
2013-01-31 05:51:00,56.7,55.8,28.62,North,0,0.0,0.0,97,0.13,,,0.27,WUHU216HW,2013-01-31 10:51:00,
2013-01-31 05:56:00,56.7,55.8,28.62,North,0,0.0,0.0,97,0.14,,,0.28,WUHU216HW,2013-01-31 10:56:00,
2013-01-31 06:01:00,56.7,55.8,28.62,North,0,0.0,0.0,97,0.12,,,0.28,WUHU216HW,2013-01-31 11:01:00,
2013-01-31 06:06:00,56.7,55.8,28.62,North,0,0.0,0.0,97,0.13,,,0.29,WUHU216HW,2013-01-31 11:06:00,
2013-01-31 06:11:00,56.7,55.8,28.62,North,0,0.0,0.0,97,0.14,,,0.30,WUHU216HW,2013-01-31 11:11:00,
2013-01-31 06:16:00,56.7,55.8,28.61,North,0,0.0,0.0,97,0.14,,,0.30,WUHU216HW,2013-01-31 11:16:00,
2013-01-31 06:21:00,56.9,56.0,28.61,North,0,0.0,0.0,97,0.13,,,0.31,WUHU216HW,2013-01-31 11:21:00,
2013-01-31 06:27:00,56.9,56.0,28.63,North,0,0.0,0.0,97,0.13,,,0.32,WUHU216HW,2013-01-31 11:27:00,
2013-01-31 06:32:00,56.9,56.0,28.64,North,0,0.0,0.0,97,0.15,,,0.36,WUHU216HW,2013-01-31 11:32:00,
2013-01-31 06:37:00,56.7,55.8,28.64,North,0,0.0,0.0,97,0.16,,,0.37,WUHU216HW,2013-01-31 11:37:00,
2013-01-31 06:42:00,56.5,55.6,28.65,North,0,0.0,0.0,97,0.15,,,0.38,WUHU216HW,2013-01-31 11:42:00,
2013-01-31 06:47:00,56.2,55.3,28.66,North,0,0.0,0.0,97,0.13,,,0.39,WUHU216HW,2013-01-31 11:47:00,
2013-01-31 06:52:00,56.0,55.1,28.66,North,0,0.0,0.0,97,0.13,,,0.40,WUHU216HW,2013-01-31 11:52:00,
2013-01-31 06:57:00,55.8,54.9,28.66,North,0,0.0,0.0,97,0.13,,,0.41,WUHU216HW,2013-01-31 11:57:00,
2013-01-31 07:02:00,55.4,54.5,28.65,North,0,0.0,0.0,97,0.13,,,0.41,WUHU216HW,2013-01-31 12:02:00,
2013-01-31 07:08:00,55.4,54.5,28.65,North,0,0.0,0.0,97,0.13,,,0.42,WUHU216HW,2013-01-31 12:08:00,
2013-01-31 07:13:00,55.3,54.4,28.64,North,0,0.0,0.0,97,0.12,,,0.42,WUHU216HW,2013-01-31 12:13:00,
2013-01-31 07:18:00,55.1,54.2,28.63,North,0,0.0,0.0,97,0.12,,,0.42,WUHU216HW,2013-01-31 12:18:00,
2013-01-31 07:23:00,54.9,54.0,28.61,North,0,0.0,0.0,97,0.11,,,0.42,WUHU216HW,2013-01-31 12:23:00,
2013-01-31 07:28:00,54.5,53.6,28.60,North,0,0.0,0.0,97,0.06,,,0.42,WUHU216HW,2013-01-31 12:28:00,
2013-01-31 07:33:00,54.4,53.5,28.60,North,0,0.0,0.0,97,0.05,,,0.42,WUHU216HW,2013-01-31 12:33:00,
2013-01-31 07:38:00,54.2,53.3,28.60,North,0,0.0,0.0,97,0.05,,,0.42,WUHU216HW,2013-01-31 12:38:00,
2013-01-31 07:43:00,54.0,53.1,28.60,North,0,0.0,0.0,97,0.04,,,0.42,WUHU216HW,2013-01-31 12:43:00,
2013-01-31 07:48:00,53.8,52.9,28.60,North,0,0.0,0.0,97,0.03,,,0.42,WUHU216HW,2013-01-31 12:48:00,
2013-01-31 07:54:00,53.6,52.7,28.60,North,0,0.0,0.0,97,0.02,,,0.42,WUHU216HW,2013-01-31 12:54:00,
2013-01-31 07:59:00,53.6,52.5,28.59,North,0,0.0,0.0,96,0.01,,,0.42,WUHU216HW,2013-01-31 12:59:00,
2013-01-31 08:04:00,53.5,52.3,28.58,North,0,0.0,0.0,96,0.01,,,0.42,WUHU216HW,2013-01-31 13:04:00,
2013-01-31 08:09:00,53.3,52.1,28.58,North,0,0.0,0.0,96,0.01,,,0.43,WUHU216HW,2013-01-31 13:09:00,
2013-01-31 08:14:00,53.3,52.1,28.58,North,0,0.0,0.0,96,0.01,,,0.43,WUHU216HW,2013-01-31 13:14:00,
2013-01-31 08:19:00,53.5,52.3,28.57,North,0,0.0,0.0,96,0.01,,,0.43,WUHU216HW,2013-01-31 13:19:00,
2013-01-31 08:24:00,53.6,52.5,28.56,North,0,0.0,0.0,96,0.01,,,0.43,WUHU216HW,2013-01-31 13:24:00,
2013-01-31 08:29:00,53.6,52.7,28.56,North,0,0.0,0.0,97,0.01,,,0.43,WUHU216HW,2013-01-31 13:29:00,
2013-01-31 08:35:00,53.8,52.9,28.56,North,0,0.0,0.0,97,0.01,,,0.43,WUHU216HW,2013-01-31 13:35:00,
2013-01-31 08:40:00,54.0,53.1,28.57,North,0,0.0,0.0,97,0.01,,,0.43,WUHU216HW,2013-01-31 13:40:00,
2013-01-31 08:45:00,54.0,53.1,28.57,North,0,0.0,0.0,97,0.01,,,0.43,WUHU216HW,2013-01-31 13:45:00,
2013-01-31 08:50:00,54.2,53.3,28.55,North,0,0.0,0.0,97,0.01,,,0.43,WUHU216HW,2013-01-31 13:50:00,
2013-01-31 08:55:00,53.6,52.7,28.58,North,0,0.0,0.0,97,0.03,,,0.45,WUHU216HW,2013-01-31 13:55:00,
2013-01-31 09:00:00,52.0,50.3,28.61,North,0,0.0,0.0,94,0.03,,,0.45,WUHU216HW,2013-01-31 14:00:00,
2013-01-31 09:05:00,50.4,48.1,28.62,North,0,0.0,0.0,92,0.03,,,0.45,WUHU216HW,2013-01-31 14:05:00,
2013-01-31 09:10:00,49.0,46.2,28.63,North,0,0.0,0.0,90,0.02,,,0.45,WUHU216HW,2013-01-31 14:10:00,
2013-01-31 09:16:00,47.9,44.8,28.63,North,0,0.0,0.0,89,0.02,,,0.45,WUHU216HW,2013-01-31 14:16:00,
2013-01-31 09:21:00,47.5,43.2,28.64,North,0,0.0,0.0,85,0.02,,,0.45,WUHU216HW,2013-01-31 14:21:00,
2013-01-31 09:26:00,47.2,42.9,28.65,North,0,0.0,0.0,85,0.02,,,0.45,WUHU216HW,2013-01-31 14:26:00,
2013-01-31 09:31:00,46.8,42.2,28.66,North,0,0.0,0.0,84,0.02,,,0.45,WUHU216HW,2013-01-31 14:31:00,
2013-01-31 09:36:00,46.3,40.5,28.67,North,0,0.0,0.0,80,0.02,,,0.45,WUHU216HW,2013-01-31 14:36:00,
2013-01-31 09:41:00,46.1,40.6,28.69,North,0,0.0,0.0,81,0.02,,,0.45,WUHU216HW,2013-01-31 14:41:00,
2013-01-31 09:46:00,45.7,40.2,28.70,North,0,0.0,0.0,81,0.02,,,0.45,WUHU216HW,2013-01-31 14:46:00,
2013-01-31 09:51:00,45.2,40.1,28.68,North,0,0.0,0.0,82,0.02,,,0.45,WUHU216HW,2013-01-31 14:51:00,
2013-01-31 09:56:00,44.5,40.2,28.70,North,0,0.0,0.0,85,0.01,,,0.46,WUHU216HW,2013-01-31 14:56:00,
2013-01-31 10:02:00,44.1,39.9,28.71,North,0,0.0,0.0,85,0.01,,,0.46,WUHU216HW,2013-01-31 15:02:00,
2013-01-31 10:07:00,43.4,39.8,28.71,North,0,0.0,0.0,87,0.02,,,0.47,WUHU216HW,2013-01-31 15:07:00,
2013-01-31 10:12:00,43.0,39.4,28.69,North,0,0.0,0.0,87,0.02,,,0.47,WUHU216HW,2013-01-31 15:12:00,
2013-01-31 10:17:00,42.8,39.3,28.69,North,0,0.0,0.0,87,0.02,,,0.47,WUHU216HW,2013-01-31 15:17:00,
2013-01-31 10:22:00,42.8,39.5,28.70,North,0,0.0,0.0,88,0.02,,,0.47,WUHU216HW,2013-01-31 15:22:00,
2013-01-31 10:27:00,43.0,40.1,28.69,North,0,0.0,0.0,89,0.02,,,0.47,WUHU216HW,2013-01-31 15:27:00,
2013-01-31 10:32:00,43.0,40.1,28.70,North,0,0.0,0.0,89,0.02,,,0.47,WUHU216HW,2013-01-31 15:32:00,
2013-01-31 10:37:00,43.2,40.2,28.71,North,0,0.0,0.0,89,0.02,,,0.47,WUHU216HW,2013-01-31 15:37:00,
2013-01-31 10:42:00,43.4,40.1,28.71,North,0,0.0,0.0,88,0.03,,,0.48,WUHU216HW,2013-01-31 15:42:00,
2013-01-31 10:48:00,43.7,40.2,28.72,North,0,0.0,0.0,87,0.03,,,0.48,WUHU216HW,2013-01-31 15:48:00,
2013-01-31 10:53:00,44.3,41.3,28.73,North,0,0.0,0.0,89,0.03,,,0.48,WUHU216HW,2013-01-31 15:53:00,
2013-01-31 10:58:00,45.0,40.8,28.74,North,0,0.0,0.0,85,0.02,,,0.48,WUHU216HW,2013-01-31 15:58:00,
2013-01-31 11:03:00,45.5,38.8,28.74,North,0,0.0,0.0,77,0.02,,,0.48,WUHU216HW,2013-01-31 16:03:00,
2013-01-31 11:08:00,45.5,38.4,28.75,North,0,0.0,0.0,76,0.01,,,0.48,WUHU216HW,2013-01-31 16:08:00,
2013-01-31 11:13:00,45.0,36.8,28.75,North,0,0.0,0.0,73,0.01,,,0.48,WUHU216HW,2013-01-31 16:13:00,
2013-01-31 11:18:00,44.6,36.2,28.75,North,0,0.0,0.0,72,0.01,,,0.48,WUHU216HW,2013-01-31 16:18:00,
2013-01-31 11:23:00,45.0,37.2,28.75,North,0,0.0,0.0,74,0.01,,,0.48,WUHU216HW,2013-01-31 16:23:00,
2013-01-31 11:28:00,45.2,36.4,28.76,North,0,0.0,0.0,71,0.01,,,0.48,WUHU216HW,2013-01-31 16:28:00,
2013-01-31 11:33:00,45.0,34.3,28.76,North,0,0.0,0.0,66,0.01,,,0.48,WUHU216HW,2013-01-31 16:33:00,
2013-01-31 11:38:00,45.0,35.1,28.77,North,0,0.0,0.0,68,0.00,,,0.48,WUHU216HW,2013-01-31 16:38:00,
2013-01-31 11:43:00,45.0,35.8,28.78,North,0,0.0,0.0,70,0.00,,,0.48,WUHU216HW,2013-01-31 16:43:00,
2013-01-31 11:49:00,44.6,33.9,28.78,North,0,0.0,0.0,66,0.00,,,0.48,WUHU216HW,2013-01-31 16:49:00,
2013-01-31 11:54:00,44.8,35.6,28.79,North,0,0.0,0.0,70,0.00,,,0.48,WUHU216HW,2013-01-31 16:54:00,
2013-01-31 11:59:00,44.8,35.6,28.79,North,0,0.0,0.0,70,0.00,,,0.48,WUHU216HW,2013-01-31 16:59:00,
2013-01-31 12:04:00,45.0,35.1,28.80,North,0,0.0,0.0,68,0.00,,,0.48,WUHU216HW,2013-01-31 17:04:00,
2013-01-31 12:09:00,44.5,34.6,28.80,North,0,0.0,0.0,68,0.00,,,0.48,WUHU216HW,2013-01-31 17:09:00,
2013-01-31 12:14:00,44.6,34.8,28.80,North,0,0.0,0.0,68,0.00,,,0.48,WUHU216HW,2013-01-31 17:14:00,
2013-01-31 12:19:00,45.0,33.9,28.81,North,0,0.0,0.0,65,0.00,,,0.48,WUHU216HW,2013-01-31 17:19:00,
2013-01-31 12:24:00,44.6,32.9,28.81,North,0,0.0,0.0,63,0.00,,,0.48,WUHU216HW,2013-01-31 17:24:00,
2013-01-31 12:29:00,44.8,32.2,28.80,North,0,0.0,0.0,61,0.00,,,0.48,WUHU216HW,2013-01-31 17:29:00,
2013-01-31 12:34:00,44.8,32.2,28.81,North,0,0.0,0.0,61,0.00,,,0.48,WUHU216HW,2013-01-31 17:34:00,
2013-01-31 12:39:00,45.0,30.7,28.81,North,0,0.0,0.0,57,0.00,,,0.48,WUHU216HW,2013-01-31 17:39:00,
2013-01-31 12:44:00,44.3,29.1,28.82,North,0,0.0,0.0,55,0.00,,,0.48,WUHU216HW,2013-01-31 17:44:00,
2013-01-31 12:49:00,44.3,30.4,28.82,North,0,0.0,0.0,58,0.00,,,0.48,WUHU216HW,2013-01-31 17:49:00,
2013-01-31 12:54:00,43.9,29.6,28.83,North,0,0.0,0.0,57,0.00,,,0.48,WUHU216HW,2013-01-31 17:54:00,
2013-01-31 12:59:00,43.6,28.5,28.83,North,0,0.0,0.0,55,0.00,,,0.48,WUHU216HW,2013-01-31 17:59:00,
2013-01-31 13:05:00,43.0,27.9,28.83,North,0,0.0,0.0,55,0.00,,,0.48,WUHU216HW,2013-01-31 18:05:00,
2013-01-31 13:10:00,42.7,28.0,28.83,North,0,0.0,0.0,56,0.00,,,0.48,WUHU216HW,2013-01-31 18:10:00,
2013-01-31 13:15:00,42.7,29.3,28.83,North,0,0.0,0.0,59,0.00,,,0.48,WUHU216HW,2013-01-31 18:15:00,
2013-01-31 13:20:00,42.8,28.6,28.83,North,0,0.0,0.0,57,0.00,,,0.48,WUHU216HW,2013-01-31 18:20:00,
2013-01-31 13:25:00,42.7,27.1,28.83,North,0,0.0,0.0,54,0.00,,,0.48,WUHU216HW,2013-01-31 18:25:00,
2013-01-31 13:30:00,42.7,27.5,28.84,North,0,0.0,0.0,55,0.00,,,0.48,WUHU216HW,2013-01-31 18:30:00,
2013-01-31 13:35:00,42.5,27.4,28.84,North,0,0.0,0.0,55,0.00,,,0.48,WUHU216HW,2013-01-31 18:35:00,
2013-01-31 13:40:00,42.7,26.6,28.85,North,0,0.0,0.0,53,0.00,,,0.48,WUHU216HW,2013-01-31 18:40:00,
2013-01-31 13:45:00,42.5,26.6,28.86,North,0,0.0,0.0,53,0.00,,,0.48,WUHU216HW,2013-01-31 18:45:00,
2013-01-31 13:50:00,42.1,25.3,28.87,North,0,0.0,0.0,51,0.00,,,0.48,WUHU216HW,2013-01-31 18:50:00,
2013-01-31 13:55:00,41.6,25.2,28.87,North,0,0.0,0.0,52,0.00,,,0.48,WUHU216HW,2013-01-31 18:55:00,
2013-01-31 14:00:00,41.6,25.7,28.87,North,0,0.0,0.0,53,0.00,,,0.48,WUHU216HW,2013-01-31 19:00:00,
2013-01-31 14:05:00,41.4,25.5,28.87,North,0,0.0,0.0,53,0.00,,,0.48,WUHU216HW,2013-01-31 19:05:00,
2013-01-31 14:10:00,41.4,25.0,28.88,North,0,0.0,0.0,52,0.00,,,0.48,WUHU216HW,2013-01-31 19:10:00,
2013-01-31 14:15:00,41.4,24.6,28.89,North,0,0.0,0.0,51,0.00,,,0.48,WUHU216HW,2013-01-31 19:15:00,
2013-01-31 14:21:00,41.4,23.6,28.89,North,0,0.0,0.0,49,0.00,,,0.48,WUHU216HW,2013-01-31 19:21:00,
2013-01-31 14:26:00,41.4,24.1,28.90,North,0,0.0,0.0,50,0.00,,,0.48,WUHU216HW,2013-01-31 19:26:00,
2013-01-31 14:31:00,40.7,23.0,28.90,North,0,0.0,0.0,49,0.00,,,0.48,WUHU216HW,2013-01-31 19:31:00,
2013-01-31 14:36:00,40.7,23.4,28.91,North,0,0.0,0.0,50,0.00,,,0.48,WUHU216HW,2013-01-31 19:36:00,
2013-01-31 14:41:00,40.3,23.1,28.91,North,0,0.0,0.0,50,0.00,,,0.48,WUHU216HW,2013-01-31 19:41:00,
2013-01-31 14:46:00,40.0,23.2,28.91,North,0,0.0,0.0,51,0.00,,,0.48,WUHU216HW,2013-01-31 19:46:00,
2013-01-31 14:51:00,40.0,23.2,28.92,North,0,0.0,0.0,51,0.00,,,0.48,WUHU216HW,2013-01-31 19:51:00,
2013-01-31 14:56:00,39.8,23.0,28.92,North,0,0.0,0.0,51,0.00,,,0.48,WUHU216HW,2013-01-31 19:56:00,
2013-01-31 15:02:00,39.8,23.0,28.93,North,0,0.0,0.0,51,0.00,,,0.48,WUHU216HW,2013-01-31 20:02:00,
2013-01-31 15:07:00,39.6,22.0,28.94,North,0,0.0,0.0,49,0.00,,,0.48,WUHU216HW,2013-01-31 20:07:00,
2013-01-31 15:12:00,39.6,22.5,28.94,North,0,0.0,0.0,50,0.00,,,0.48,WUHU216HW,2013-01-31 20:12:00,
2013-01-31 15:17:00,39.2,21.6,28.94,North,0,0.0,0.0,49,0.00,,,0.48,WUHU216HW,2013-01-31 20:17:00,
2013-01-31 15:22:00,38.7,21.2,28.95,North,0,0.0,0.0,49,0.00,,,0.48,WUHU216HW,2013-01-31 20:22:00,
2013-01-31 15:27:00,38.3,21.3,28.96,North,0,0.0,0.0,50,0.00,,,0.48,WUHU216HW,2013-01-31 20:27:00,
2013-01-31 15:32:00,37.8,20.9,28.97,North,0,0.0,0.0,50,0.00,,,0.48,WUHU216HW,2013-01-31 20:32:00,
2013-01-31 15:37:00,37.4,19.4,28.97,North,0,0.0,0.0,48,0.00,,,0.48,WUHU216HW,2013-01-31 20:37:00,
2013-01-31 15:42:00,36.9,20.1,28.97,North,0,0.0,0.0,50,0.00,,,0.48,WUHU216HW,2013-01-31 20:42:00,
2013-01-31 15:47:00,36.7,19.4,28.98,North,0,0.0,0.0,49,0.00,,,0.48,WUHU216HW,2013-01-31 20:47:00,
2013-01-31 15:53:00,36.7,19.9,28.98,North,0,0.0,0.0,50,0.00,,,0.48,WUHU216HW,2013-01-31 20:53:00,
2013-01-31 15:58:00,36.5,19.7,28.99,North,0,0.0,0.0,50,0.00,,,0.48,WUHU216HW,2013-01-31 20:58:00,
2013-01-31 16:03:00,36.4,19.5,28.99,North,0,0.0,0.0,50,0.00,,,0.48,WUHU216HW,2013-01-31 21:03:00,
2013-01-31 16:08:00,36.2,19.4,28.99,North,0,0.0,0.0,50,0.00,,,0.48,WUHU216HW,2013-01-31 21:08:00,
2013-01-31 16:13:00,36.0,19.3,28.99,North,0,0.0,0.0,50,0.00,,,0.48,WUHU216HW,2013-01-31 21:13:00,
2013-01-31 16:18:00,36.0,19.3,28.99,North,0,0.0,0.0,50,0.00,,,0.48,WUHU216HW,2013-01-31 21:18:00,
2013-01-31 16:23:00,36.0,19.3,28.99,North,0,0.0,0.0,50,0.00,,,0.48,WUHU216HW,2013-01-31 21:23:00,
2013-01-31 16:29:00,36.0,19.3,29.00,North,0,0.0,0.0,50,0.00,,,0.48,WUHU216HW,2013-01-31 21:29:00,
2013-01-31 16:34:00,35.6,19.8,29.00,North,0,0.0,0.0,52,0.00,,,0.48,WUHU216HW,2013-01-31 21:34:00,
2013-01-31 16:39:00,35.5,19.6,29.00,North,0,0.0,0.0,52,0.00,,,0.48,WUHU216HW,2013-01-31 21:39:00,
2013-01-31 16:44:00,35.5,19.6,29.00,North,0,0.0,0.0,52,0.00,,,0.48,WUHU216HW,2013-01-31 21:44:00,
2013-01-31 16:49:00,35.3,19.8,29.01,North,0,0.0,0.0,53,0.00,,,0.48,WUHU216HW,2013-01-31 21:49:00,
2013-01-31 16:54:00,35.3,19.8,29.01,North,0,0.0,0.0,53,0.00,,,0.48,WUHU216HW,2013-01-31 21:54:00,
2013-01-31 16:59:00,35.1,19.6,29.01,North,0,0.0,0.0,53,0.00,,,0.48,WUHU216HW,2013-01-31 21:59:00,
2013-01-31 17:04:00,34.9,18.6,29.01,North,0,0.0,0.0,51,0.00,,,0.48,WUHU216HW,2013-01-31 22:04:00,
2013-01-31 17:09:00,34.9,18.6,29.02,North,0,0.0,0.0,51,0.00,,,0.48,WUHU216HW,2013-01-31 22:09:00,
2013-01-31 17:14:00,34.9,18.2,29.02,North,0,0.0,0.0,50,0.00,,,0.48,WUHU216HW,2013-01-31 22:14:00,
2013-01-31 17:19:00,34.9,18.2,29.02,North,0,0.0,0.0,50,0.00,,,0.48,WUHU216HW,2013-01-31 22:19:00,
2013-01-31 17:24:00,34.6,18.7,29.03,North,0,0.0,0.0,52,0.00,,,0.48,WUHU216HW,2013-01-31 22:24:00,
2013-01-31 17:30:00,34.6,18.7,29.03,North,0,0.0,0.0,52,0.00,,,0.48,WUHU216HW,2013-01-31 22:30:00,
2013-01-31 17:35:00,34.4,18.1,29.03,North,0,0.0,0.0,51,0.00,,,0.48,WUHU216HW,2013-01-31 22:35:00,
2013-01-31 17:40:00,34.2,17.5,29.03,North,0,0.0,0.0,50,0.00,,,0.48,WUHU216HW,2013-01-31 22:40:00,
2013-01-31 17:45:00,34.2,16.5,29.04,North,0,0.0,0.0,48,0.00,,,0.48,WUHU216HW,2013-01-31 22:45:00,
2013-01-31 17:50:00,34.2,15.4,29.04,North,0,0.0,0.0,46,0.00,,,0.48,WUHU216HW,2013-01-31 22:50:00,
2013-01-31 17:55:00,34.0,15.3,29.04,North,0,0.0,0.0,46,0.00,,,0.48,WUHU216HW,2013-01-31 22:55:00,
2013-01-31 18:00:00,33.8,15.1,29.04,North,0,0.0,0.0,46,0.00,,,0.48,WUHU216HW,2013-01-31 23:00:00,
2013-01-31 18:05:00,33.7,15.4,29.05,North,0,0.0,0.0,47,0.00,,,0.48,WUHU216HW,2013-01-31 23:05:00,
2013-01-31 18:10:00,33.5,14.8,29.05,North,0,0.0,0.0,46,0.00,,,0.48,WUHU216HW,2013-01-31 23:10:00,
2013-01-31 18:15:00,33.5,15.3,29.07,North,0,0.0,0.0,47,0.00,,,0.48,WUHU216HW,2013-01-31 23:15:00,
2013-01-31 18:21:00,33.5,14.8,29.06,North,0,0.0,0.0,46,0.00,,,0.48,WUHU216HW,2013-01-31 23:21:00,
2013-01-31 18:26:00,33.5,15.3,29.07,North,0,0.0,0.0,47,0.00,,,0.48,WUHU216HW,2013-01-31 23:26:00,
2013-01-31 18:31:00,33.1,14.9,29.07,North,0,0.0,0.0,47,0.00,,,0.48,WUHU216HW,2013-01-31 23:31:00,
2013-01-31 18:36:00,33.1,14.9,29.07,North,0,0.0,0.0,47,0.00,,,0.48,WUHU216HW,2013-01-31 23:36:00,
2013-01-31 18:41:00,33.1,14.9,29.07,North,0,0.0,0.0,47,0.00,,,0.48,WUHU216HW,2013-01-31 23:41:00,
2013-01-31 18:46:00,33.1,15.5,29.08,North,0,0.0,0.0,48,0.00,,,0.48,WUHU216HW,2013-01-31 23:46:00,
2013-01-31 18:51:00,32.9,15.3,29.09,North,0,0.0,0.0,48,0.00,,,0.48,WUHU216HW,2013-01-31 23:51:00,
2013-01-31 18:56:00,32.9,15.8,29.09,North,0,0.0,0.0,49,0.00,,,0.48,WUHU216HW,2013-01-31 23:56:00,
2013-01-31 19:02:00,32.8,16.1,29.10,North,0,0.0,0.0,50,0.00,,,0.48,WUHU216HW,2013-02-01 00:02:00,
2013-01-31 19:07:00,32.8,16.1,29.10,North,0,0.0,0.0,50,0.00,,,0.48,WUHU216HW,2013-02-01 00:07:00,
2013-01-31 19:12:00,32.8,16.6,29.10,North,0,0.0,0.0,51,0.00,,,0.48,WUHU216HW,2013-02-01 00:12:00,
2013-01-31 19:17:00,32.8,16.1,29.11,North,0,0.0,0.0,50,0.00,,,0.48,WUHU216HW,2013-02-01 00:17:00,
2013-01-31 19:22:00,32.8,16.6,29.10,North,0,0.0,0.0,51,0.00,,,0.48,WUHU216HW,2013-02-01 00:22:00,
2013-01-31 19:27:00,32.6,16.8,29.11,North,0,0.0,0.0,52,0.00,,,0.48,WUHU216HW,2013-02-01 00:27:00,
2013-01-31 19:32:00,32.6,16.8,29.11,North,0,0.0,0.0,52,0.00,,,0.48,WUHU216HW,2013-02-01 00:32:00,
2013-01-31 19:37:00,32.6,17.3,29.11,North,0,0.0,0.0,53,0.00,,,0.48,WUHU216HW,2013-02-01 00:37:00,
2013-01-31 19:42:00,32.4,16.2,29.11,North,0,0.0,0.0,51,0.00,,,0.48,WUHU216HW,2013-02-01 00:42:00,
2013-01-31 19:47:00,32.4,16.7,29.12,North,0,0.0,0.0,52,0.00,,,0.48,WUHU216HW,2013-02-01 00:47:00,
2013-01-31 19:52:00,32.2,16.5,29.12,North,0,0.0,0.0,52,0.00,,,0.48,WUHU216HW,2013-02-01 00:52:00,
2013-01-31 19:58:00,32.0,15.5,29.12,North,0,0.0,0.0,50,0.00,,,0.48,WUHU216HW,2013-02-01 00:58:00,
2013-01-31 20:03:00,32.0,14.5,29.12,North,0,0.0,0.0,48,0.00,,,0.48,WUHU216HW,2013-02-01 01:03:00,
2013-01-31 20:08:00,32.0,15.5,29.12,North,0,0.0,0.0,50,0.00,,,0.48,WUHU216HW,2013-02-01 01:08:00,
2013-01-31 20:13:00,31.9,15.3,29.12,North,0,0.0,0.0,50,0.00,,,0.48,WUHU216HW,2013-02-01 01:13:00,
2013-01-31 20:18:00,31.7,13.7,29.12,North,0,0.0,0.0,47,0.00,,,0.48,WUHU216HW,2013-02-01 01:18:00,
2013-01-31 20:23:00,31.7,12.6,29.13,North,0,0.0,0.0,45,0.00,,,0.48,WUHU216HW,2013-02-01 01:23:00,
2013-01-31 20:28:00,31.5,13.0,29.13,North,0,0.0,0.0,46,0.00,,,0.48,WUHU216HW,2013-02-01 01:28:00,
2013-01-31 20:33:00,31.5,13.0,29.14,North,0,0.0,0.0,46,0.00,,,0.48,WUHU216HW,2013-02-01 01:33:00,
2013-01-31 20:38:00,31.3,13.3,29.14,North,0,0.0,0.0,47,0.00,,,0.48,WUHU216HW,2013-02-01 01:38:00,
2013-01-31 20:43:00,31.3,13.9,29.13,North,0,0.0,0.0,48,0.00,,,0.48,WUHU216HW,2013-02-01 01:43:00,
2013-01-31 20:48:00,31.0,13.5,29.14,North,0,0.0,0.0,48,0.00,,,0.48,WUHU216HW,2013-02-01 01:48:00,
2013-01-31 20:53:00,31.0,14.5,29.14,North,0,0.0,0.0,50,0.00,,,0.48,WUHU216HW,2013-02-01 01:53:00,
2013-01-31 20:59:00,30.8,13.9,29.14,North,0,0.0,0.0,49,0.00,,,0.48,WUHU216HW,2013-02-01 01:59:00,
2013-01-31 21:04:00,30.8,14.3,29.14,North,0,0.0,0.0,50,0.00,,,0.48,WUHU216HW,2013-02-01 02:04:00,
2013-01-31 21:09:00,30.6,13.7,29.14,North,0,0.0,0.0,49,0.00,,,0.48,WUHU216HW,2013-02-01 02:09:00,
2013-01-31 21:14:00,30.6,13.1,29.14,North,0,0.0,0.0,48,0.00,,,0.48,WUHU216HW,2013-02-01 02:14:00,
2013-01-31 21:19:00,30.6,12.7,29.15,North,0,0.0,0.0,47,0.00,,,0.48,WUHU216HW,2013-02-01 02:19:00,
2013-01-31 21:24:00,30.6,13.1,29.15,North,0,0.0,0.0,48,0.00,,,0.48,WUHU216HW,2013-02-01 02:24:00,
2013-01-31 21:29:00,30.6,13.1,29.16,North,0,0.0,0.0,48,0.00,,,0.48,WUHU216HW,2013-02-01 02:29:00,
2013-01-31 21:34:00,30.6,13.1,29.16,North,0,0.0,0.0,48,0.00,,,0.48,WUHU216HW,2013-02-01 02:34:00,
2013-01-31 21:39:00,30.4,12.5,29.16,North,0,0.0,0.0,47,0.00,,,0.48,WUHU216HW,2013-02-01 02:39:00,
2013-01-31 21:44:00,30.4,12.5,29.16,North,0,0.0,0.0,47,0.00,,,0.48,WUHU216HW,2013-02-01 02:44:00,
2013-01-31 21:49:00,30.2,12.9,29.17,North,0,0.0,0.0,48,0.00,,,0.48,WUHU216HW,2013-02-01 02:49:00,
2013-01-31 21:54:00,30.2,12.3,29.17,North,0,0.0,0.0,47,0.00,,,0.48,WUHU216HW,2013-02-01 02:54:00,
2013-01-31 21:59:00,30.2,12.9,29.17,North,0,0.0,0.0,48,0.00,,,0.48,WUHU216HW,2013-02-01 02:59:00,
2013-01-31 22:04:00,30.1,12.7,29.17,North,0,0.0,0.0,48,0.00,,,0.48,WUHU216HW,2013-02-01 03:04:00,
2013-01-31 22:09:00,30.1,12.7,29.17,North,0,0.0,0.0,48,0.00,,,0.48,WUHU216HW,2013-02-01 03:09:00,
2013-01-31 22:14:00,29.9,12.5,29.17,North,0,0.0,0.0,48,0.00,,,0.48,WUHU216HW,2013-02-01 03:14:00,
2013-01-31 22:20:00,29.9,12.5,29.17,North,0,0.0,0.0,48,0.00,,,0.48,WUHU216HW,2013-02-01 03:20:00,
2013-01-31 22:25:00,29.9,12.5,29.17,North,0,0.0,0.0,48,0.00,,,0.48,WUHU216HW,2013-02-01 03:25:00,
2013-01-31 22:30:00,29.9,12.5,29.17,North,0,0.0,0.0,48,0.00,,,0.48,WUHU216HW,2013-02-01 03:30:00,
2013-01-31 22:35:00,29.9,12.5,29.17,North,0,0.0,0.0,48,0.00,,,0.48,WUHU216HW,2013-02-01 03:35:00,
2013-01-31 22:40:00,29.7,12.3,29.18,North,0,0.0,0.0,48,0.00,,,0.48,WUHU216HW,2013-02-01 03:40:00,
2013-01-31 22:45:00,29.5,12.3,29.18,North,0,0.0,0.0,48,0.00,,,0.48,WUHU216HW,2013-02-01 03:45:00,
2013-01-31 22:50:00,29.5,12.3,29.18,North,0,0.0,0.0,48,0.00,,,0.48,WUHU216HW,2013-02-01 03:50:00,
2013-01-31 22:55:00,29.5,12.7,29.18,North,0,0.0,0.0,49,0.00,,,0.48,WUHU216HW,2013-02-01 03:55:00,
2013-01-31 23:00:00,29.3,12.5,29.18,North,0,0.0,0.0,49,0.00,,,0.48,WUHU216HW,2013-02-01 04:00:00,
2013-01-31 23:05:00,29.2,12.4,29.19,North,0,0.0,0.0,49,0.00,,,0.48,WUHU216HW,2013-02-01 04:05:00,
2013-01-31 23:10:00,29.2,12.4,29.19,North,0,0.0,0.0,49,0.00,,,0.48,WUHU216HW,2013-02-01 04:10:00,
2013-01-31 23:15:00,29.2,12.4,29.19,North,0,0.0,0.0,49,0.00,,,0.48,WUHU216HW,2013-02-01 04:15:00,
2013-01-31 23:21:00,29.2,12.4,29.19,North,0,0.0,0.0,49,0.00,,,0.48,WUHU216HW,2013-02-01 04:21:00,
2013-01-31 23:26:00,29.2,12.9,29.19,North,0,0.0,0.0,50,0.00,,,0.48,WUHU216HW,2013-02-01 04:26:00,
2013-01-31 23:31:00,29.2,12.9,29.19,North,0,0.0,0.0,50,0.00,,,0.48,WUHU216HW,2013-02-01 04:31:00,
2013-01-31 23:36:00,29.0,12.7,29.20,North,0,0.0,0.0,50,0.00,,,0.48,WUHU216HW,2013-02-01 04:36:00,
2013-01-31 23:41:00,29.0,12.7,29.20,North,0,0.0,0.0,50,0.00,,,0.48,WUHU216HW,2013-02-01 04:41:00,
2013-01-31 23:46:00,29.0,12.7,29.20,North,0,0.0,0.0,50,0.00,,,0.48,WUHU216HW,2013-02-01 04:46:00,
2013-01-31 23:51:00,29.0,12.7,29.20,North,0,0.0,0.0,50,0.00,,,0.48,WUHU216HW,2013-02-01 04:51:00,
2013-01-31 23:56:00,29.0,13.6,29.20,North,0,0.0,0.0,52,0.00,,,0.48,WUHU216HW,2013-02-01 04:56:00,